KMMU/MMU METAR and TAF weather

Enter ICAO airport designator
Station Type Date Time Source
KMMU METAR 2021/04/18 02:35 UTC NOAA

KMMU 180235Z AUTO 00000KT 10SM OVC060 10/01 A2982 RMK AO2


Station Type Date Time Source
KMMU Decoded METAR 2021/04/18 02:35 UTC NOAA

Morristown Municipal, NJ, United States (KMMU) 40-48N 074-25W
Apr 17, 2021 - 10:35 PM EDT / 2021.04.18 0235 UTC
Wind: Calm:0
Visibility: 10 mile(s):0
Sky conditions: overcast
Temperature: 50 F (10 C)
Dew Point: 33 F (1 C)
Relative Humidity: 53%
Pressure (altimeter): 29.82 in. Hg (1009 hPa)
ob: KMMU 180235Z AUTO 00000KT 10SM OVC060 10/01 A2982 RMK AO2
cycle: 2

Station Type Date Time Source
KMMU TAF UTC NOAA

Error!

Example: see airport list